Lonetree, Wyoming
Current Conditions -  °F | °C
As of 6:55 AM on Thursday 30 Oct 2014 (Local Time) from KFBR Reporting Station
Scattered Clouds Scattered Clouds  
Wind Chill: 35°   Ceiling: Unl
Heat Index: 40°   Visibility: NA
Dew Point: 25°   Wind: 6mph
Humidity: 56%   Direction: 260°W
Pressure: 30.39"   Gusts: NA
Location:  41.0297°N, 110.145°W
Report Text: KFBR 301255Z AUTO 26005KT SCT060 04/M04 A3039 RMK AO2 T00421039 PWINO
Loading
Personal Weather Stations






























Interactive Weather Map
Tropical Storm Tracking
New forecast layout! Learn more

10-Day Weather Forecast

Advertisements
Track Severe Weather on mobile